createdAt,value
2023-02-05T00:02:04.360Z,4.27
2023-02-05T00:04:32.276Z,4.30
2023-02-05T00:07:01.508Z,4.02
2023-02-05T00:09:29.429Z,4.05
2023-02-05T00:11:57.724Z,3.93
2023-02-05T00:14:26.039Z,4.24
2023-02-05T00:16:54.779Z,4.31
2023-02-05T00:19:22.596Z,3.85
2023-02-05T00:21:50.474Z,4.25
2023-02-05T00:24:19.731Z,4.26
2023-02-05T00:26:47.638Z,4.06
2023-02-05T00:29:15.579Z,4.22
2023-02-05T00:31:43.618Z,4.33
2023-02-05T00:34:11.626Z,4.48
2023-02-05T00:36:39.455Z,4.62
2023-02-05T00:39:09.140Z,4.73
2023-02-05T00:41:38.691Z,4.80
2023-02-05T00:44:07.226Z,4.79
2023-02-05T00:46:35.151Z,4.71
2023-02-05T00:49:02.979Z,5.18
2023-02-05T00:51:30.887Z,5.15
2023-02-05T00:53:58.790Z,4.85
2023-02-05T00:56:26.653Z,4.86
2023-02-05T00:58:57.551Z,4.81
2023-02-05T01:01:26.320Z,4.79
2023-02-05T01:03:54.189Z,4.69
2023-02-05T01:06:22.142Z,4.58
2023-02-05T01:08:50.128Z,4.79
2023-02-05T01:13:46.097Z,4.39
2023-02-05T01:16:15.553Z,4.64
2023-02-05T01:18:43.553Z,4.62
2023-02-05T01:21:11.499Z,4.58
2023-02-05T01:23:39.504Z,4.71
2023-02-05T01:26:07.874Z,4.77
2023-02-05T01:28:35.835Z,4.54
2023-02-05T01:31:03.923Z,4.48
2023-02-05T01:33:33.320Z,4.40
2023-02-05T01:36:01.272Z,4.32
2023-02-05T01:38:29.210Z,4.56
2023-02-05T01:40:59.944Z,4.32
2023-02-05T01:43:27.992Z,4.03
2023-02-05T01:46:15.928Z,4.24
2023-02-05T01:48:52.034Z,4.33
2023-02-05T01:51:21.470Z,4.40
2023-02-05T01:53:51.303Z,4.52
2023-02-05T01:56:23.698Z,4.77
2023-02-05T01:58:57.873Z,4.73
2023-02-05T02:01:26.972Z,4.63
2023-02-05T02:04:04.569Z,4.76
2023-02-05T02:06:34.468Z,4.81
2023-02-05T02:09:04.551Z,4.78
2023-02-05T02:11:36.792Z,4.63
2023-02-05T02:14:09.568Z,4.43
2023-02-05T02:16:40.289Z,4.48
2023-02-05T02:19:22.006Z,5.14
2023-02-05T02:22:23.530Z,5.02
2023-02-05T02:25:16.750Z,5.11
2023-02-05T02:27:54.587Z,5.02
2023-02-05T02:30:27.770Z,4.96
2023-02-05T02:33:07.526Z,5.21
2023-02-05T02:35:45.673Z,5.55
2023-02-05T02:38:22.178Z,5.28
2023-02-05T02:40:54.039Z,5.52
2023-02-05T02:43:29.671Z,5.65
2023-02-05T02:46:04.567Z,4.93
2023-02-05T02:48:37.958Z,4.68
2023-02-05T02:51:10.967Z,5.05
2023-02-05T02:53:43.808Z,5.11
2023-02-05T02:56:14.820Z,5.22
2023-02-05T02:58:48.320Z,5.62
2023-02-05T03:01:21.887Z,5.12
2023-02-05T03:03:55.473Z,5.41
2023-02-05T03:06:24.128Z,6.02
2023-02-05T03:08:59.099Z,5.51
2023-02-05T03:11:27.345Z,5.72
2023-02-05T03:13:58.279Z,5.78
2023-02-05T03:16:28.696Z,6.05
2023-02-05T03:18:58.340Z,6.02
2023-02-05T03:21:31.643Z,5.95
2023-02-05T03:23:59.802Z,6.09
2023-02-05T03:26:31.908Z,5.96
2023-02-05T03:29:04.708Z,5.98
2023-02-05T03:31:43.299Z,5.69
2023-02-05T03:34:28.339Z,5.89
2023-02-05T03:37:08.461Z,5.92
2023-02-05T03:39:48.693Z,6.01
2023-02-05T03:42:32.698Z,5.97
2023-02-05T03:45:20.495Z,6.23
2023-02-05T03:48:13.726Z,6.03
2023-02-05T03:50:50.981Z,5.85
2023-02-05T03:53:27.233Z,6.15
2023-02-05T03:56:05.647Z,6.11
2023-02-05T03:58:39.894Z,6.19
2023-02-05T04:01:12.851Z,5.86
2023-02-05T04:03:41.889Z,6.23
2023-02-05T04:06:10.091Z,6.16
2023-02-05T04:08:38.008Z,6.02
2023-02-05T04:11:07.310Z,6.11
2023-02-05T04:13:35.227Z,6.38
2023-02-05T04:16:03.603Z,6.44
2023-02-05T04:18:32.882Z,6.31
2023-02-05T04:21:01.724Z,6.33
2023-02-05T04:23:29.580Z,6.65
2023-02-05T04:25:57.526Z,6.50
2023-02-05T04:28:25.383Z,6.38
2023-02-05T04:30:53.336Z,6.08
2023-02-05T04:33:21.221Z,6.67
2023-02-05T04:35:50.450Z,6.37
2023-02-05T04:38:18.283Z,6.32
2023-02-05T04:40:46.536Z,6.30
2023-02-05T04:43:14.410Z,6.26
2023-02-05T04:45:42.331Z,6.37
2023-02-05T04:48:10.210Z,6.21
2023-02-05T04:50:39.076Z,6.45
2023-02-05T04:53:08.585Z,6.35
2023-02-05T04:55:36.698Z,6.64
2023-02-05T04:58:04.721Z,6.40
2023-02-05T05:00:32.969Z,6.69
2023-02-05T05:03:00.815Z,6.10
2023-02-05T05:05:28.691Z,6.37
2023-02-05T05:07:56.580Z,6.11
2023-02-05T05:10:25.905Z,6.37
2023-02-05T05:12:54.153Z,6.60
2023-02-05T05:15:21.973Z,6.51
2023-02-05T05:17:49.814Z,7.06
2023-02-05T05:20:18.269Z,6.25
2023-02-05T05:22:46.187Z,6.09
2023-02-05T05:25:14.014Z,5.99
2023-02-05T05:27:43.331Z,6.06
2023-02-05T05:30:12.630Z,5.95
2023-02-05T05:32:40.521Z,6.38
2023-02-05T05:35:08.804Z,6.41
2023-02-05T05:37:36.678Z,6.11
2023-02-05T05:40:22.680Z,5.88
2023-02-05T05:43:09.360Z,6.05
2023-02-05T05:45:37.236Z,6.16
2023-02-05T05:48:05.587Z,6.21
2023-02-05T05:50:33.426Z,6.10
2023-02-05T05:53:01.303Z,6.29
2023-02-05T05:55:29.171Z,6.30
2023-02-05T05:57:58.431Z,6.70
2023-02-05T06:00:26.349Z,6.86
2023-02-05T06:02:54.203Z,6.44
2023-02-05T06:05:22.061Z,6.43
2023-02-05T06:07:50.126Z,6.39
2023-02-05T06:10:18.089Z,6.81
2023-02-05T06:12:46.091Z,6.80
2023-02-05T06:15:15.498Z,7.27
2023-02-05T06:17:43.494Z,7.09
2023-02-05T06:20:12.669Z,7.17
2023-02-05T06:22:41.443Z,7.35
2023-02-05T06:25:09.668Z,7.69
2023-02-05T06:27:37.725Z,7.38
2023-02-05T06:30:06.156Z,7.31
2023-02-05T06:32:35.346Z,7.31
2023-02-05T06:35:03.320Z,7.60
2023-02-05T06:37:46.191Z,7.55
2023-02-05T06:40:18.127Z,7.46
2023-02-05T06:42:46.391Z,7.83
2023-02-05T06:45:14.304Z,9.51
2023-02-05T06:47:43.541Z,11.71
2023-02-05T06:50:11.710Z,14.96
2023-02-05T06:52:39.810Z,14.59
2023-02-05T06:55:08.138Z,17.40
2023-02-05T06:57:36.009Z,16.69
2023-02-05T07:00:04.991Z,40.03
2023-02-05T07:02:32.950Z,48.23
2023-02-05T07:05:03.148Z,34.36
2023-02-05T07:07:31.178Z,15.19
2023-02-05T07:09:59.030Z,10.57
2023-02-05T07:12:26.947Z,10.64
2023-02-05T07:14:54.894Z,15.17
2023-02-05T07:17:22.790Z,15.25
2023-02-05T07:19:50.687Z,8.52
2023-02-05T07:22:20.053Z,9.43
2023-02-05T07:24:47.902Z,12.29
2023-02-05T07:27:15.823Z,10.12
2023-02-05T07:29:43.711Z,14.41
2023-02-05T07:32:11.696Z,14.92
2023-02-05T07:34:39.703Z,11.18
2023-02-05T07:37:07.563Z,9.92
2023-02-05T07:39:36.730Z,9.18
2023-02-05T07:42:04.626Z,8.94
2023-02-05T07:44:32.554Z,9.90
2023-02-05T07:47:00.852Z,8.96
2023-02-05T07:49:28.744Z,9.50
2023-02-05T07:51:56.590Z,9.34
2023-02-05T07:54:24.665Z,9.16
2023-02-05T07:56:55.294Z,9.92
2023-02-05T07:59:23.203Z,9.41
2023-02-05T08:01:51.128Z,8.76
2023-02-05T08:04:19.062Z,9.96
2023-02-05T08:06:46.961Z,9.76
2023-02-05T08:09:16.081Z,9.02
2023-02-05T08:11:43.933Z,9.15
2023-02-05T08:14:13.224Z,9.40
2023-02-05T08:16:41.363Z,9.76
2023-02-05T08:19:15.482Z,10.05
2023-02-05T08:21:43.629Z,10.27
2023-02-05T08:24:11.956Z,10.17
2023-02-05T08:26:40.303Z,10.61
2023-02-05T08:29:08.885Z,12.03
2023-02-05T08:31:39.022Z,12.06
2023-02-05T08:34:06.938Z,12.12
2023-02-05T08:36:34.925Z,11.54
2023-02-05T08:39:02.807Z,11.03
2023-02-05T08:41:30.676Z,10.34
2023-02-05T08:43:58.614Z,10.47
2023-02-05T08:46:31.627Z,10.01
2023-02-05T08:49:06.816Z,10.96
2023-02-05T08:51:35.734Z,11.32
2023-02-05T08:54:03.742Z,11.25
2023-02-05T08:56:31.811Z,11.24
2023-02-05T08:58:59.644Z,11.06
2023-02-05T09:01:27.714Z,11.12
2023-02-05T09:03:55.617Z,9.97
2023-02-05T09:06:24.892Z,10.51
2023-02-05T09:08:52.739Z,13.51
2023-02-05T09:11:22.804Z,13.11
2023-02-05T09:13:51.102Z,12.06
2023-02-05T09:16:19.076Z,11.34
2023-02-05T09:18:46.938Z,11.07
2023-02-05T09:21:14.963Z,11.32
2023-02-05T09:23:44.181Z,11.65
2023-02-05T09:26:12.155Z,11.30
2023-02-05T09:28:40.106Z,11.59
2023-02-05T09:31:10.154Z,12.18
2023-02-05T09:33:38.378Z,11.46
2023-02-05T09:36:07.540Z,12.37
2023-02-05T09:38:35.549Z,11.85
2023-02-05T09:41:11.243Z,11.22
2023-02-05T09:43:52.421Z,11.17
2023-02-05T09:46:33.657Z,11.61
2023-02-05T09:49:09.278Z,13.22
2023-02-05T09:51:41.904Z,12.85
2023-02-05T09:54:18.469Z,11.82
2023-02-05T09:56:49.469Z,12.24
2023-02-05T09:59:22.402Z,14.75
2023-02-05T10:01:53.910Z,14.41
2023-02-05T10:04:22.976Z,15.13
2023-02-05T10:07:17.728Z,14.93
2023-02-05T10:10:22.507Z,13.95
2023-02-05T10:13:25.857Z,14.80
2023-02-05T10:16:23.760Z,14.14
2023-02-05T10:19:08.677Z,12.92
2023-02-05T10:22:11.024Z,13.51
2023-02-05T10:25:03.613Z,12.39
2023-02-05T10:27:44.172Z,13.02
2023-02-05T10:30:22.740Z,13.76
2023-02-05T10:32:58.553Z,12.49
2023-02-05T10:35:38.709Z,12.88
2023-02-05T10:38:17.265Z,12.52
2023-02-05T10:40:46.873Z,11.99
2023-02-05T10:43:22.881Z,11.93
2023-02-05T10:45:52.786Z,11.78
2023-02-05T10:48:38.223Z,12.46
2023-02-05T10:51:07.975Z,12.47
2023-02-05T10:53:36.708Z,12.81
2023-02-05T10:56:06.810Z,12.70
2023-02-05T10:58:41.835Z,12.56
2023-02-05T11:01:17.389Z,12.39
2023-02-05T11:03:56.061Z,13.17
2023-02-05T11:06:28.499Z,13.97
2023-02-05T11:08:56.502Z,12.86
2023-02-05T11:11:29.176Z,12.40
2023-02-05T11:14:01.011Z,12.70
2023-02-05T11:16:39.974Z,12.67
2023-02-05T11:19:20.663Z,15.40
2023-02-05T11:21:51.670Z,15.54
2023-02-05T11:24:26.581Z,13.99
2023-02-05T11:27:14.564Z,13.53
2023-02-05T11:29:43.122Z,14.06
2023-02-05T11:32:21.555Z,15.86
2023-02-05T11:34:49.656Z,14.75
2023-02-05T11:37:20.010Z,14.52
2023-02-05T11:39:54.885Z,14.67
2023-02-05T11:42:26.840Z,14.58
2023-02-05T11:44:58.864Z,15.23
2023-02-05T11:47:32.624Z,17.12
2023-02-05T11:50:01.422Z,19.71
2023-02-05T11:52:36.472Z,21.36
2023-02-05T11:55:06.160Z,19.68
2023-02-05T11:57:38.554Z,20.06
2023-02-05T12:00:22.382Z,19.60
2023-02-05T12:03:04.386Z,16.46
2023-02-05T12:05:38.421Z,16.97
2023-02-05T12:08:14.222Z,18.20
2023-02-05T12:10:53.692Z,18.79
2023-02-05T12:13:28.999Z,18.72
2023-02-05T12:16:06.742Z,17.61
2023-02-05T12:18:53.376Z,17.73
2023-02-05T12:21:33.703Z,16.39
2023-02-05T12:24:30.094Z,16.09
2023-02-05T12:27:09.623Z,18.36
2023-02-05T12:29:59.299Z,17.27
2023-02-05T12:32:42.741Z,16.49
2023-02-05T12:35:33.967Z,16.48
2023-02-05T12:38:27.283Z,16.54
2023-02-05T12:41:16.905Z,16.36
2023-02-05T12:43:48.717Z,16.83
2023-02-05T12:46:41.142Z,16.68
2023-02-05T12:49:29.033Z,16.20
2023-02-05T12:52:15.360Z,16.68
2023-02-05T12:55:02.731Z,16.47
2023-02-05T12:57:41.929Z,16.97
2023-02-05T13:00:19.658Z,17.66
2023-02-05T13:05:35.620Z,17.40
2023-02-05T13:08:13.635Z,18.13
2023-02-05T13:10:51.757Z,18.46
2023-02-05T13:13:28.253Z,18.27
2023-02-05T13:16:05.844Z,18.89
2023-02-05T13:18:40.750Z,18.63
2023-02-05T13:21:32.596Z,19.26
2023-02-05T13:24:38.965Z,19.36
2023-02-05T13:27:39.942Z,19.08
2023-02-05T13:30:16.871Z,18.98
2023-02-05T13:32:51.788Z,19.15
2023-02-05T13:35:22.537Z,19.46
2023-02-05T13:38:22.854Z,19.93
2023-02-05T13:41:18.782Z,19.94
2023-02-05T13:44:12.391Z,19.94
2023-02-05T13:47:18.093Z,19.72
2023-02-05T13:50:13.638Z,20.34
2023-02-05T13:53:11.462Z,21.53
2023-02-05T13:56:18.892Z,21.22
2023-02-05T13:58:52.839Z,20.76
2023-02-05T14:01:29.120Z,21.58
2023-02-05T14:04:01.963Z,21.85
2023-02-05T14:06:33.719Z,22.30
2023-02-05T14:09:06.672Z,21.59
2023-02-05T14:11:53.974Z,23.38
2023-02-05T14:14:26.021Z,23.62
2023-02-05T14:16:55.003Z,23.34
2023-02-05T14:19:26.529Z,23.04
2023-02-05T14:22:03.221Z,24.23
2023-02-05T14:24:58.309Z,24.21
2023-02-05T14:27:52.143Z,24.61
2023-02-05T14:30:52.668Z,24.79
2023-02-05T14:33:30.798Z,26.18
2023-02-05T14:36:31.795Z,24.28
2023-02-05T14:39:07.686Z,24.61
2023-02-05T14:41:50.731Z,26.34
2023-02-05T14:44:25.034Z,26.21
2023-02-05T14:47:03.899Z,25.44
2023-02-05T14:49:42.592Z,25.24
2023-02-05T14:52:27.756Z,25.30
2023-02-05T14:55:01.007Z,24.19
2023-02-05T14:57:41.408Z,24.47
2023-02-05T15:00:26.868Z,23.58
2023-02-05T15:03:27.843Z,24.14
2023-02-05T15:06:02.004Z,23.84
2023-02-05T15:08:43.115Z,24.21
2023-02-05T15:11:21.510Z,23.07
2023-02-05T15:14:41.333Z,23.11
2023-02-05T15:17:45.486Z,21.73
2023-02-05T15:20:33.877Z,21.36
2023-02-05T15:23:15.693Z,22.50
2023-02-05T15:25:53.147Z,23.17
2023-02-05T15:28:33.545Z,23.37
2023-02-05T15:31:22.045Z,23.18
2023-02-05T15:34:00.245Z,23.25
2023-02-05T15:36:36.575Z,23.07
2023-02-05T15:39:19.969Z,23.24
2023-02-05T15:41:49.289Z,23.56
2023-02-05T15:44:23.968Z,23.27
2023-02-05T15:46:53.369Z,22.90
2023-02-05T15:49:33.457Z,22.86
2023-02-05T15:52:02.598Z,22.93
2023-02-05T15:54:37.028Z,22.72
2023-02-05T15:57:07.220Z,22.45
2023-02-05T15:59:36.008Z,22.77
2023-02-05T16:02:09.594Z,22.81
2023-02-05T16:04:40.799Z,22.18
2023-02-05T16:07:20.459Z,22.68
2023-02-05T16:09:52.920Z,23.26
2023-02-05T16:12:22.402Z,23.01
2023-02-05T16:14:59.660Z,22.88
2023-02-05T16:17:35.353Z,23.42
2023-02-05T16:20:17.728Z,23.43
2023-02-05T16:22:49.877Z,24.00
2023-02-05T16:25:30.669Z,24.33
2023-02-05T16:28:02.364Z,23.03
2023-02-05T16:30:40.397Z,23.48
2023-02-05T16:33:19.380Z,23.23
2023-02-05T16:35:49.907Z,23.07
2023-02-05T16:38:21.922Z,22.96
2023-02-05T16:40:53.281Z,23.67
2023-02-05T16:43:31.327Z,23.74
2023-02-05T16:46:24.116Z,23.92
2023-02-05T16:48:54.970Z,23.47
2023-02-05T16:51:39.439Z,22.77
2023-02-05T16:54:28.967Z,22.94
2023-02-05T16:57:02.377Z,22.78
2023-02-05T16:59:34.368Z,22.62
2023-02-05T17:02:04.293Z,21.98
2023-02-05T17:04:36.992Z,22.84
2023-02-05T17:07:18.516Z,23.11
2023-02-05T17:09:46.462Z,23.19
2023-02-05T17:12:39.322Z,22.90
2023-02-05T17:15:31.208Z,22.07
2023-02-05T17:18:04.575Z,23.04
2023-02-05T17:20:34.216Z,22.63
2023-02-05T17:23:11.926Z,22.62
2023-02-05T17:25:44.086Z,23.50
2023-02-05T17:28:17.462Z,23.40
2023-02-05T17:30:48.351Z,23.33
2023-02-05T17:33:19.255Z,22.22
2023-02-05T17:35:47.351Z,22.28
2023-02-05T17:38:18.043Z,21.78
2023-02-05T17:40:46.109Z,22.12
2023-02-05T17:43:14.585Z,22.26
2023-02-05T17:45:44.231Z,22.20
2023-02-05T17:48:12.431Z,21.47
2023-02-05T17:50:43.170Z,21.62
2023-02-05T17:53:14.048Z,22.28
2023-02-05T17:55:43.331Z,21.71
2023-02-05T17:58:11.309Z,21.79
2023-02-05T18:00:39.235Z,22.75
2023-02-05T18:03:07.119Z,22.83
2023-02-05T18:05:35.138Z,22.33
2023-02-05T18:08:03.678Z,22.29
2023-02-05T18:10:32.829Z,21.94
2023-02-05T18:13:03.008Z,22.03
2023-02-05T18:15:33.893Z,22.51
2023-02-05T18:18:01.784Z,22.71
2023-02-05T18:20:29.786Z,22.11
2023-02-05T18:22:57.706Z,21.61
2023-02-05T18:25:25.678Z,22.26
2023-02-05T18:27:56.108Z,22.56
2023-02-05T18:30:25.779Z,22.76
2023-02-05T18:32:53.676Z,21.22
2023-02-05T18:35:21.630Z,22.01
2023-02-05T18:37:49.682Z,21.26
2023-02-05T18:40:17.814Z,21.69
2023-02-05T18:42:47.085Z,22.47
2023-02-05T18:45:15.022Z,22.80
2023-02-05T18:47:44.370Z,22.47
2023-02-05T18:50:12.680Z,22.63
2023-02-05T18:52:40.568Z,24.04
2023-02-05T18:55:08.850Z,23.36
2023-02-05T18:57:36.817Z,24.64
2023-02-05T19:00:05.017Z,24.48
2023-02-05T19:02:35.097Z,23.41
2023-02-05T19:05:04.702Z,23.83
2023-02-05T19:07:32.672Z,24.32
2023-02-05T19:10:01.495Z,23.03
2023-02-05T19:12:29.604Z,22.43
2023-02-05T19:17:31.470Z,22.31
2023-02-05T19:19:59.556Z,22.35
2023-02-05T19:22:29.178Z,22.50
2023-02-05T19:24:57.613Z,23.56
2023-02-05T19:27:25.552Z,28.79
2023-02-05T19:29:53.535Z,28.68
2023-02-05T19:32:21.465Z,27.87
2023-02-05T19:34:49.490Z,29.58
2023-02-05T19:37:17.775Z,26.17
2023-02-05T19:39:47.316Z,22.55
2023-02-05T19:42:35.620Z,20.54
2023-02-05T19:45:03.549Z,20.99
2023-02-05T19:47:31.486Z,24.46
2023-02-05T19:49:59.459Z,25.36
2023-02-05T19:52:27.331Z,23.01
2023-02-05T19:54:56.561Z,27.06
2023-02-05T19:57:25.075Z,24.21
2023-02-05T19:59:53.158Z,21.68
2023-02-05T20:02:21.843Z,22.50
2023-02-05T20:04:49.825Z,22.01
2023-02-05T20:07:17.724Z,20.72
2023-02-05T20:09:45.625Z,19.89
2023-02-05T20:12:15.131Z,19.52
2023-02-05T20:14:43.338Z,19.33
2023-02-05T20:17:16.270Z,18.89
2023-02-05T20:19:44.414Z,18.88
2023-02-05T20:22:12.313Z,18.53
2023-02-05T20:24:40.231Z,19.39
2023-02-05T20:27:08.212Z,19.67
2023-02-05T20:29:55.016Z,19.15
2023-02-05T20:32:22.971Z,19.01
2023-02-05T20:34:50.873Z,18.97
2023-02-05T20:37:19.882Z,17.77
2023-02-05T20:39:48.359Z,17.09
2023-02-05T20:42:16.828Z,17.48
2023-02-05T20:44:46.228Z,16.50
2023-02-05T20:47:15.769Z,16.28
2023-02-05T20:49:44.100Z,14.75
2023-02-05T20:52:12.895Z,15.12
2023-02-05T20:54:41.087Z,14.42
2023-02-05T20:57:09.137Z,14.72
2023-02-05T20:59:37.679Z,15.82
2023-02-05T21:02:07.750Z,14.94
2023-02-05T21:04:37.512Z,16.14
2023-02-05T21:07:05.432Z,14.65
2023-02-05T21:09:33.448Z,14.55
2023-02-05T21:12:01.391Z,14.33
2023-02-05T21:14:29.371Z,14.23
2023-02-05T21:16:57.513Z,14.51
2023-02-05T21:19:26.808Z,15.06
2023-02-05T21:21:54.767Z,14.85
2023-02-05T21:24:22.763Z,14.65
2023-02-05T21:26:51.155Z,14.10
2023-02-05T21:29:21.954Z,14.57
2023-02-05T21:31:53.212Z,14.97
2023-02-05T21:34:24.160Z,15.24
2023-02-05T21:36:55.049Z,15.44
2023-02-05T21:39:23.735Z,15.59
2023-02-05T21:41:53.296Z,15.26
2023-02-05T21:44:21.381Z,15.13
2023-02-05T21:46:49.250Z,15.96
2023-02-05T21:49:17.258Z,16.23
2023-02-05T21:51:45.198Z,16.63
2023-02-05T21:54:15.044Z,15.20
2023-02-05T21:56:44.155Z,16.34
2023-02-05T21:59:13.340Z,15.87
2023-02-05T22:01:43.056Z,16.08
2023-02-05T22:04:14.927Z,16.69
2023-02-05T22:06:43.726Z,16.76
2023-02-05T22:09:15.081Z,16.80
2023-02-05T22:11:43.491Z,17.04
2023-02-05T22:14:11.880Z,16.85
2023-02-05T22:16:40.296Z,17.05
2023-02-05T22:19:08.962Z,16.81
2023-02-05T22:21:38.640Z,17.33
2023-02-05T22:24:08.584Z,17.23
2023-02-05T22:26:41.538Z,17.98
2023-02-05T22:29:13.634Z,17.59
2023-02-05T22:31:42.133Z,17.62
2023-02-05T22:34:10.128Z,17.43
2023-02-05T22:36:38.648Z,17.59
2023-02-05T22:39:07.422Z,17.90
2023-02-05T22:41:39.397Z,17.20
2023-02-05T22:44:09.092Z,16.77
2023-02-05T22:46:40.699Z,16.69
2023-02-05T22:49:08.689Z,16.11
2023-02-05T22:51:40.343Z,16.16
2023-02-05T22:54:11.523Z,16.39
2023-02-05T22:56:40.856Z,16.23
2023-02-05T22:59:09.000Z,16.05
2023-02-05T23:01:39.030Z,16.13
2023-02-05T23:04:09.407Z,15.82
2023-02-05T23:06:39.962Z,15.49
2023-02-05T23:09:10.024Z,15.79
2023-02-05T23:11:38.374Z,15.27
2023-02-05T23:14:08.922Z,14.90
2023-02-05T23:16:39.638Z,15.78
2023-02-05T23:19:09.616Z,18.35
2023-02-05T23:21:39.731Z,18.80
2023-02-05T23:24:08.366Z,19.93
2023-02-05T23:26:39.977Z,17.31
2023-02-05T23:29:10.219Z,16.76
2023-02-05T23:31:38.413Z,16.83
2023-02-05T23:34:07.389Z,16.35
2023-02-05T23:36:35.391Z,16.65
2023-02-05T23:39:03.284Z,16.29
2023-02-05T23:41:37.429Z,16.37
2023-02-05T23:44:08.828Z,16.07
2023-02-05T23:46:38.785Z,16.11
2023-02-05T23:49:07.642Z,15.59
2023-02-05T23:51:36.085Z,15.70
2023-02-05T23:54:04.166Z,15.74
2023-02-05T23:56:32.746Z,15.67
2023-02-05T23:59:00.790Z,15.87
